Time;durP1;ratioP1;P1;durP2;ratioP2;P2;SDS_P1;SDS_P2;PMS_P1;PMS_P2;Temp;Humidity;BMP_temperature;BMP_pressure;BME280_temperature;BME280_humidity;BME280_pressure;Samples;Min_cycle;Max_cycle;Signal;HPM_P1;HPM_P2
2023/04/29 00:01:36;;;;;;;53.60;33.83;;;;;;;;;;5013033;28;20455;-68
2023/04/29 00:04:04;;;;;;;59.60;35.70;;;;;;;;;;5013428;28;20453;-68
2023/04/29 00:06:31;;;;;;;59.83;36.57;;;;;;;;;;5013041;28;20454;-68
2023/04/29 00:08:58;;;;;;;62.10;36.00;;;;;;;;;;5012972;28;20453;-67
2023/04/29 00:11:27;;;;;;;61.73;35.23;;;;;;;;;;5013123;28;20452;-68
2023/04/29 00:13:54;;;;;;;72.63;38.53;;;;;;;;;;5013363;28;20855;-68
2023/04/29 00:16:21;;;;;;;67.40;39.40;;;;;;;;;;5013748;28;20487;-67
2023/04/29 00:18:48;;;;;;;66.03;37.83;;;;;;;;;;5013058;28;20942;-68
2023/04/29 00:21:16;;;;;;;67.53;34.67;;;;;;;;;;5013356;28;20551;-67
2023/04/29 00:23:43;;;;;;;65.20;35.57;;;;;;;;;;5013246;28;20449;-68
2023/04/29 00:26:10;;;;;;;65.70;39.50;;;;;;;;;;5012904;28;20453;-67
2023/04/29 00:28:39;;;;;;;65.70;37.17;;;;;;;;;;5013144;28;20849;-68
2023/04/29 00:31:06;;;;;;;70.50;38.33;;;;;;;;;;5013149;28;20461;-67
2023/04/29 00:33:33;;;;;;;59.43;32.90;;;;;;;;;;5013171;28;20538;-68
2023/04/29 00:36:00;;;;;;;56.30;31.70;;;;;;;;;;5013598;28;20476;-67
2023/04/29 00:38:28;;;;;;;59.40;34.70;;;;;;;;;;5012679;28;20569;-68
2023/04/29 00:40:56;;;;;;;58.90;34.97;;;;;;;;;;5013162;28;20439;-67
2023/04/29 00:43:23;;;;;;;57.10;30.77;;;;;;;;;;5013157;28;20808;-67
2023/04/29 00:45:53;;;;;;;69.67;35.73;;;;;;;;;;5013066;28;20444;-68
2023/04/29 00:48:20;;;;;;;71.27;37.33;;;;;;;;;;5013489;28;20993;-67
2023/04/29 00:50:47;;;;;;;73.00;36.20;;;;;;;;;;5016674;28;20472;-68
2023/04/29 00:53:15;;;;;;;74.23;37.93;;;;;;;;;;5016423;28;20446;-67
2023/04/29 00:55:42;;;;;;;74.03;39.80;;;;;;;;;;5016177;28;20534;-68
2023/04/29 00:58:10;;;;;;;71.97;36.90;;;;;;;;;;5016622;28;20446;-67
2023/04/29 01:00:38;;;;;;;70.60;36.70;;;;;;;;;;5016024;28;20535;-68
2023/04/29 01:03:07;;;;;;;66.33;35.03;;;;;;;;;;5016346;28;20445;-67
2023/04/29 01:05:34;;;;;;;67.17;36.00;;;;;;;;;;5016238;28;20439;-67
2023/04/29 01:08:08;;;;;;;71.60;35.80;;;;;;;;;;5016877;28;20452;-67
2023/04/29 01:10:40;;;;;;;66.27;35.23;;;;;;;;;;5016228;28;20425;-68
2023/04/29 01:13:10;;;;;;;61.73;33.13;;;;;;;;;;5016545;28;20429;-67
2023/04/29 01:15:42;;;;;;;56.00;32.40;;;;;;;;;;5016396;28;20474;-67
2023/04/29 01:18:12;;;;;;;58.97;33.83;;;;;;;;;;5015686;28;20433;-68
2023/04/29 01:20:40;;;;;;;61.47;34.73;;;;;;;;;;5016035;28;20437;-68
2023/04/29 01:23:07;;;;;;;55.30;32.30;;;;;;;;;;5016177;28;20938;-67
2023/04/29 01:25:37;;;;;;;70.83;34.07;;;;;;;;;;5016298;28;20447;-67
2023/04/29 01:28:09;;;;;;;60.30;33.03;;;;;;;;;;5015901;28;20439;-67
2023/04/29 01:30:41;;;;;;;59.30;32.87;;;;;;;;;;5015537;28;20900;-68
2023/04/29 01:33:14;;;;;;;69.47;33.57;;;;;;;;;;5016307;28;20780;-67
2023/04/29 01:35:46;;;;;;;64.30;32.50;;;;;;;;;;5015657;28;20436;-68
2023/04/29 01:38:19;;;;;;;72.03;33.33;;;;;;;;;;5015007;28;20489;-68
2023/04/29 01:40:55;;;;;;;54.70;30.30;;;;;;;;;;5015711;28;20471;-67
2023/04/29 01:43:23;;;;;;;62.43;31.57;;;;;;;;;;5015550;28;20471;-68
2023/04/29 01:45:50;;;;;;;53.90;28.63;;;;;;;;;;5015562;28;20444;-67
2023/04/29 01:48:18;;;;;;;58.77;32.67;;;;;;;;;;5015745;28;20443;-67
2023/04/29 01:50:46;;;;;;;64.97;32.70;;;;;;;;;;5015120;28;20484;-67
2023/04/29 01:53:14;;;;;;;57.00;28.27;;;;;;;;;;5015039;28;20463;-67
2023/04/29 01:55:42;;;;;;;59.80;30.40;;;;;;;;;;5015075;28;20459;-67
2023/04/29 01:58:11;;;;;;;50.77;25.53;;;;;;;;;;5014933;28;20483;-68
2023/04/29 02:00:38;;;;;;;55.33;29.17;;;;;;;;;;5014935;28;20542;-68
2023/04/29 02:03:05;;;;;;;48.80;28.43;;;;;;;;;;5015089;28;20932;-68
2023/04/29 02:05:33;;;;;;;49.57;29.10;;;;;;;;;;5015095;28;20933;-67
2023/04/29 02:08:00;;;;;;;47.97;27.43;;;;;;;;;;5014637;28;20936;-68
2023/04/29 02:10:28;;;;;;;51.80;26.30;;;;;;;;;;5014721;28;20499;-67
2023/04/29 02:12:55;;;;;;;44.37;25.67;;;;;;;;;;5014673;28;20604;-67
2023/04/29 02:15:23;;;;;;;44.70;25.90;;;;;;;;;;5015026;28;20435;-67
2023/04/29 02:17:51;;;;;;;47.83;26.30;;;;;;;;;;5014918;28;20483;-67
2023/04/29 02:20:18;;;;;;;43.40;23.40;;;;;;;;;;5014792;28;20444;-67
2023/04/29 02:22:45;;;;;;;41.10;24.90;;;;;;;;;;5015015;28;20439;-67
2023/04/29 02:25:13;;;;;;;41.73;27.07;;;;;;;;;;5014780;28;20495;-68
2023/04/29 02:27:40;;;;;;;46.63;26.80;;;;;;;;;;5014662;28;20952;-67
2023/04/29 02:30:08;;;;;;;43.67;27.27;;;;;;;;;;5014640;28;20443;-67
2023/04/29 02:32:38;;;;;;;45.87;26.60;;;;;;;;;;5014315;28;20459;-67
2023/04/29 02:35:05;;;;;;;40.97;28.03;;;;;;;;;;5014633;28;20447;-67
2023/04/29 02:37:32;;;;;;;40.63;25.60;;;;;;;;;;5014353;28;20492;-67
2023/04/29 02:39:59;;;;;;;44.00;27.40;;;;;;;;;;5014505;28;20453;-67
2023/04/29 02:42:27;;;;;;;45.47;27.70;;;;;;;;;;5014369;28;20916;-67
2023/04/29 02:44:54;;;;;;;46.03;28.00;;;;;;;;;;5014520;28;20469;-67
2023/04/29 02:47:21;;;;;;;53.23;29.93;;;;;;;;;;5014435;28;20799;-67
2023/04/29 02:49:50;;;;;;;55.83;31.17;;;;;;;;;;5014550;28;20439;-67
2023/04/29 02:52:17;;;;;;;53.33;32.00;;;;;;;;;;5014019;28;20440;-67
2023/04/29 02:54:45;;;;;;;54.10;32.50;;;;;;;;;;5014478;28;20446;-67
2023/04/29 02:57:12;;;;;;;54.90;32.83;;;;;;;;;;5013848;28;20483;-67
2023/04/29 02:59:39;;;;;;;57.20;33.43;;;;;;;;;;5014218;28;20921;-68
2023/04/29 03:02:06;;;;;;;51.70;32.40;;;;;;;;;;5014198;28;20798;-68
2023/04/29 03:04:33;;;;;;;58.27;35.87;;;;;;;;;;5014067;28;20956;-67
2023/04/29 03:07:03;;;;;;;50.70;32.97;;;;;;;;;;5014144;28;20465;-67
2023/04/29 03:09:30;;;;;;;55.27;33.40;;;;;;;;;;5014113;28;20542;-67
2023/04/29 03:11:57;;;;;;;49.00;33.27;;;;;;;;;;5013369;28;20534;-67
2023/04/29 03:14:25;;;;;;;54.35;36.08;;;;;;;;;;5014333;28;20446;-67
2023/04/29 03:16:52;;;;;;;59.33;35.13;;;;;;;;;;5014398;28;20220;-67
2023/04/29 03:19:19;;;;;;;62.00;35.90;;;;;;;;;;5013902;28;20447;-67
2023/04/29 03:21:46;;;;;;;52.87;35.00;;;;;;;;;;5013912;28;20445;-66
2023/04/29 03:24:15;;;;;;;53.40;32.80;;;;;;;;;;5012418;28;20448;-67
2023/04/29 03:26:43;;;;;;;56.10;32.13;;;;;;;;;;5012291;28;20455;-67
2023/04/29 03:29:10;;;;;;;54.03;34.33;;;;;;;;;;5012151;28;21023;-67
2023/04/29 03:31:37;;;;;;;54.90;33.10;;;;;;;;;;5012324;28;20458;-67
2023/04/29 03:34:04;;;;;;;48.17;33.40;;;;;;;;;;5012548;28;20447;-67
2023/04/29 03:36:32;;;;;;;50.23;33.67;;;;;;;;;;5012466;28;20443;-67
2023/04/29 03:38:59;;;;;;;52.57;32.90;;;;;;;;;;5012586;28;21007;-67
2023/04/29 03:41:28;;;;;;;50.60;32.13;;;;;;;;;;5012473;28;20435;-67
2023/04/29 03:43:59;;;;;;;53.80;34.53;;;;;;;;;;5012738;28;20439;-67
2023/04/29 03:46:26;;;;;;;51.70;33.67;;;;;;;;;;5012758;28;20490;-67
2023/04/29 03:48:54;;;;;;;50.10;33.67;;;;;;;;;;5012456;28;20470;-69
2023/04/29 03:51:22;;;;;;;54.10;34.20;;;;;;;;;;5012249;28;20570;-71
2023/04/29 03:53:49;;;;;;;49.00;33.57;;;;;;;;;;5012680;28;20928;-67
2023/04/29 03:56:16;;;;;;;53.83;34.33;;;;;;;;;;5011493;28;20444;-68
2023/04/29 03:58:45;;;;;;;47.20;30.60;;;;;;;;;;5012375;28;20499;-67
2023/04/29 04:01:12;;;;;;;45.70;30.83;;;;;;;;;;5012542;28;20436;-67
2023/04/29 04:03:39;;;;;;;47.70;31.80;;;;;;;;;;5012782;28;20812;-68
2023/04/29 04:06:06;;;;;;;48.17;31.60;;;;;;;;;;5012779;28;20826;-68
2023/04/29 04:08:33;;;;;;;48.87;29.43;;;;;;;;;;5012647;28;20492;-67
2023/04/29 04:11:03;;;;;;;45.07;30.70;;;;;;;;;;5013221;28;20454;-67
2023/04/29 04:13:30;;;;;;;42.90;30.37;;;;;;;;;;5013201;28;20471;-67
2023/04/29 04:15:59;;;;;;;41.03;29.57;;;;;;;;;;5012756;28;20450;-67
2023/04/29 04:18:26;;;;;;;44.80;29.97;;;;;;;;;;5012823;28;20566;-67
2023/04/29 04:20:53;;;;;;;45.60;31.50;;;;;;;;;;5013264;28;20440;-68
2023/04/29 04:23:20;;;;;;;47.47;30.70;;;;;;;;;;5014716;28;20444;-67
2023/04/29 04:25:48;;;;;;;35.27;26.67;;;;;;;;;;5001339;28;20532;-68
2023/04/29 04:28:15;;;;;;;41.37;29.70;;;;;;;;;;4996714;28;20455;-67
2023/04/29 04:30:42;;;;;;;45.90;31.27;;;;;;;;;;4997200;28;20447;-67
2023/04/29 04:33:11;;;;;;;41.17;31.60;;;;;;;;;;4997233;28;20450;-68
2023/04/29 04:35:38;;;;;;;46.70;32.57;;;;;;;;;;4996957;28;20448;-67
2023/04/29 04:38:06;;;;;;;44.40;31.60;;;;;;;;;;4996011;28;20602;-67
2023/04/29 04:40:33;;;;;;;45.37;32.83;;;;;;;;;;4996885;28;20448;-66
2023/04/29 04:43:01;;;;;;;45.73;30.00;;;;;;;;;;4996980;28;20448;-67
2023/04/29 04:45:30;;;;;;;48.87;32.17;;;;;;;;;;4996071;28;20934;-67
2023/04/29 04:47:57;;;;;;;51.77;32.60;;;;;;;;;;4995996;28;20452;-67
2023/04/29 04:50:25;;;;;;;54.77;33.07;;;;;;;;;;4996559;28;20444;-67
2023/04/29 04:52:55;;;;;;;47.57;32.77;;;;;;;;;;4996942;28;20884;-67
2023/04/29 04:55:22;;;;;;;49.57;31.90;;;;;;;;;;4996430;28;20942;-67
2023/04/29 04:57:49;;;;;;;51.63;33.53;;;;;;;;;;4996473;28;20837;-67
2023/04/29 05:00:16;;;;;;;51.30;32.10;;;;;;;;;;4996545;28;20475;-67
2023/04/29 05:02:44;;;;;;;47.60;30.53;;;;;;;;;;4995790;28;20476;-67
2023/04/29 05:05:11;;;;;;;47.10;31.33;;;;;;;;;;4996168;28;20450;-67
2023/04/29 05:07:39;;;;;;;50.70;33.63;;;;;;;;;;4995901;28;20452;-66
2023/04/29 05:10:07;;;;;;;49.73;31.30;;;;;;;;;;4995615;28;20447;-67
2023/04/29 05:12:34;;;;;;;50.20;30.73;;;;;;;;;;4996237;28;20457;-67
2023/04/29 05:15:02;;;;;;;49.20;33.80;;;;;;;;;;4995870;28;20542;-67
2023/04/29 05:17:29;;;;;;;45.10;31.90;;;;;;;;;;4995775;28;20631;-67
2023/04/29 05:19:57;;;;;;;50.30;31.33;;;;;;;;;;4996281;28;20447;-68
2023/04/29 05:22:24;;;;;;;49.17;32.03;;;;;;;;;;4995874;28;20944;-66
2023/04/29 05:24:54;;;;;;;49.50;30.83;;;;;;;;;;4995422;28;20445;-67
2023/04/29 05:27:21;;;;;;;44.87;29.97;;;;;;;;;;4995497;28;20514;-67
2023/04/29 05:29:48;;;;;;;46.67;29.27;;;;;;;;;;4995866;28;20797;-67
2023/04/29 05:32:15;;;;;;;42.63;30.00;;;;;;;;;;4995579;28;20942;-67
2023/04/29 05:34:43;;;;;;;48.20;31.13;;;;;;;;;;4994980;28;20918;-67
2023/04/29 05:37:10;;;;;;;43.90;32.30;;;;;;;;;;4995432;28;20453;-68
2023/04/29 05:39:38;;;;;;;55.40;31.97;;;;;;;;;;4995810;28;20831;-67
2023/04/29 05:42:06;;;;;;;48.40;31.27;;;;;;;;;;4995505;28;20809;-67
2023/04/29 05:44:33;;;;;;;48.10;31.57;;;;;;;;;;4995568;28;20444;-67
2023/04/29 05:47:01;;;;;;;52.23;31.07;;;;;;;;;;4995182;28;20444;-67
2023/04/29 05:49:28;;;;;;;44.27;30.23;;;;;;;;;;4995424;28;20490;-67
2023/04/29 05:51:55;;;;;;;52.07;32.83;;;;;;;;;;4995470;28;20451;-67
2023/04/29 05:54:22;;;;;;;48.80;31.47;;;;;;;;;;4998696;28;20442;-67
2023/04/29 05:56:49;;;;;;;47.93;30.67;;;;;;;;;;5014866;28;20447;-70
2023/04/29 05:59:18;;;;;;;52.23;31.63;;;;;;;;;;5014636;28;20986;-70
2023/04/29 06:01:45;;;;;;;54.53;33.10;;;;;;;;;;5014777;28;20439;-66
2023/04/29 06:04:12;;;;;;;49.10;33.77;;;;;;;;;;5014302;28;20452;-66
2023/04/29 06:06:39;;;;;;;46.27;31.77;;;;;;;;;;5014111;28;21003;-66
2023/04/29 06:09:07;;;;;;;53.00;33.47;;;;;;;;;;5014507;28;20477;-66
2023/04/29 06:11:35;;;;;;;54.33;32.20;;;;;;;;;;5014322;28;20466;-67
2023/04/29 06:14:02;;;;;;;56.53;33.70;;;;;;;;;;5014802;28;20443;-76
2023/04/29 06:16:31;;;;;;;58.60;35.03;;;;;;;;;;5014761;28;20443;-67
2023/04/29 06:18:58;;;;;;;59.07;36.70;;;;;;;;;;5014497;28;20479;-66
2023/04/29 06:21:26;;;;;;;53.00;35.27;;;;;;;;;;5014748;28;20489;-67
2023/04/29 06:23:54;;;;;;;61.57;36.73;;;;;;;;;;5014060;28;20940;-66
2023/04/29 06:26:21;;;;;;;55.67;34.80;;;;;;;;;;5013470;28;20474;-67
2023/04/29 06:28:48;;;;;;;57.07;37.67;;;;;;;;;;5014300;28;20475;-67
2023/04/29 06:31:15;;;;;;;53.90;36.60;;;;;;;;;;5014229;28;20493;-66
2023/04/29 06:33:45;;;;;;;55.87;34.13;;;;;;;;;;5014348;28;20451;-67
2023/04/29 06:36:12;;;;;;;57.77;36.87;;;;;;;;;;5013837;28;20510;-66
2023/04/29 06:38:39;;;;;;;61.40;37.33;;;;;;;;;;5013506;28;21012;-66
2023/04/29 06:41:06;;;;;;;62.73;38.10;;;;;;;;;;5013943;28;20451;-67
2023/04/29 06:43:34;;;;;;;69.10;38.93;;;;;;;;;;5013708;28;20443;-66
2023/04/29 06:46:01;;;;;;;53.13;36.53;;;;;;;;;;5012592;28;20448;-67
2023/04/29 06:48:28;;;;;;;65.10;40.27;;;;;;;;;;5013302;28;20447;-68
2023/04/29 06:50:57;;;;;;;63.33;38.07;;;;;;;;;;5013763;28;20476;-67
2023/04/29 06:53:25;;;;;;;65.70;40.43;;;;;;;;;;5013656;28;20448;-66
2023/04/29 06:55:52;;;;;;;65.90;40.33;;;;;;;;;;5013516;28;20447;-67
2023/04/29 06:58:19;;;;;;;71.78;41.40;;;;;;;;;;5013512;28;20475;-66
2023/04/29 07:00:47;;;;;;;72.03;41.20;;;;;;;;;;5014108;28;20218;-66
2023/04/29 07:03:15;;;;;;;77.33;42.63;;;;;;;;;;5013168;28;20514;-67
2023/04/29 07:05:44;;;;;;;67.47;39.80;;;;;;;;;;5013273;28;20451;-68
2023/04/29 07:08:13;;;;;;;58.30;40.37;;;;;;;;;;5013074;28;20455;-67
2023/04/29 07:10:40;;;;;;;66.30;40.77;;;;;;;;;;5013448;28;20451;-67
2023/04/29 07:13:07;;;;;;;62.70;38.80;;;;;;;;;;5013403;28;20453;-66
2023/04/29 07:15:35;;;;;;;69.20;43.60;;;;;;;;;;5013388;28;20443;-67
2023/04/29 07:18:03;;;;;;;64.50;38.00;;;;;;;;;;5013071;28;20533;-67
2023/04/29 07:20:31;;;;;;;59.10;39.67;;;;;;;;;;5014166;28;20954;-66
2023/04/29 07:22:58;;;;;;;67.47;41.00;;;;;;;;;;5013114;28;20462;-67
2023/04/29 07:25:28;;;;;;;65.03;39.40;;;;;;;;;;5012774;28;20458;-67
2023/04/29 07:27:55;;;;;;;70.70;44.17;;;;;;;;;;5012674;28;20494;-67
2023/04/29 07:30:22;;;;;;;64.20;38.67;;;;;;;;;;5013383;28;20432;-67
2023/04/29 07:32:50;;;;;;;58.90;40.73;;;;;;;;;;5013406;28;20447;-67
2023/04/29 07:35:17;;;;;;;67.63;38.50;;;;;;;;;;5013918;28;20470;-67
2023/04/29 07:37:44;;;;;;;66.03;38.33;;;;;;;;;;5013212;28;20490;-67
2023/04/29 07:40:12;;;;;;;55.33;36.90;;;;;;;;;;5013802;28;20475;-67
2023/04/29 07:42:40;;;;;;;58.90;35.87;;;;;;;;;;5013579;28;20439;-67
2023/04/29 07:45:08;;;;;;;61.10;36.07;;;;;;;;;;5013609;28;20440;-67
2023/04/29 07:47:35;;;;;;;57.90;36.67;;;;;;;;;;5014025;28;20442;-67
2023/04/29 07:50:02;;;;;;;58.30;35.27;;;;;;;;;;5013333;28;20449;-67
2023/04/29 07:52:29;;;;;;;55.63;38.40;;;;;;;;;;5013277;28;20931;-66
2023/04/29 07:54:57;;;;;;;56.20;37.63;;;;;;;;;;5013513;28;20534;-66
2023/04/29 07:57:24;;;;;;;46.23;34.33;;;;;;;;;;5014375;28;20445;-66
2023/04/29 07:59:53;;;;;;;56.60;33.20;;;;;;;;;;5017162;28;21047;-67
2023/04/29 08:02:20;;;;;;;46.90;31.93;;;;;;;;;;5017602;28;20533;-67
2023/04/29 08:04:49;;;;;;;48.03;32.07;;;;;;;;;;5017601;28;20441;-67
2023/04/29 08:07:16;;;;;;;36.50;29.13;;;;;;;;;;5017313;28;20480;-67
2023/04/29 08:09:44;;;;;;;40.77;32.97;;;;;;;;;;5016857;28;20458;-67
2023/04/29 08:12:11;;;;;;;49.50;31.83;;;;;;;;;;5017248;28;20439;-67
2023/04/29 08:14:38;;;;;;;50.57;34.40;;;;;;;;;;5017172;28;20443;-67
2023/04/29 08:17:07;;;;;;;40.00;29.30;;;;;;;;;;5017378;28;20456;-67
2023/04/29 08:19:34;;;;;;;50.97;31.93;;;;;;;;;;5017306;28;20475;-67
2023/04/29 08:22:03;;;;;;;40.80;29.10;;;;;;;;;;5016685;28;20545;-67
2023/04/29 08:24:32;;;;;;;40.33;29.43;;;;;;;;;;5016997;28;20457;-67
2023/04/29 08:27:00;;;;;;;36.23;28.53;;;;;;;;;;5016957;28;20467;-66
2023/04/29 08:29:27;;;;;;;36.53;28.93;;;;;;;;;;5016713;28;20502;-66
2023/04/29 08:31:54;;;;;;;36.43;28.40;;;;;;;;;;5017092;28;20455;-66
2023/04/29 08:34:23;;;;;;;43.07;28.67;;;;;;;;;;5016349;28;20440;-66
2023/04/29 08:36:50;;;;;;;40.77;30.40;;;;;;;;;;5016668;28;20801;-67
2023/04/29 08:39:17;;;;;;;34.50;28.93;;;;;;;;;;5016059;28;20855;-67
2023/04/29 08:41:50;;;;;;;38.77;28.03;;;;;;;;;;5016630;28;20451;-66
2023/04/29 08:44:17;;;;;;;39.93;29.33;;;;;;;;;;5016238;28;20516;-66
2023/04/29 08:46:45;;;;;;;39.87;29.80;;;;;;;;;;5016607;28;20538;-67
2023/04/29 08:49:13;;;;;;;42.13;30.00;;;;;;;;;;5016541;28;20479;-66
2023/04/29 08:51:41;;;;;;;36.93;26.17;;;;;;;;;;5016524;28;20443;-67
2023/04/29 08:54:08;;;;;;;34.00;25.13;;;;;;;;;;5016468;28;20785;-66
2023/04/29 08:56:37;;;;;;;32.93;24.30;;;;;;;;;;5016130;28;20451;-66
2023/04/29 08:59:05;;;;;;;30.27;23.93;;;;;;;;;;5016087;28;20480;-67
2023/04/29 09:01:33;;;;;;;32.43;24.37;;;;;;;;;;5016362;28;20451;-67
2023/04/29 09:04:05;;;;;;;31.77;25.80;;;;;;;;;;5016816;28;20447;-66
2023/04/29 09:06:33;;;;;;;39.30;27.37;;;;;;;;;;5016243;28;20442;-66
2023/04/29 09:09:02;;;;;;;35.33;25.20;;;;;;;;;;5015767;28;20851;-66
2023/04/29 09:11:30;;;;;;;28.40;22.80;;;;;;;;;;5016029;28;20446;-66
2023/04/29 09:14:00;;;;;;;30.87;22.50;;;;;;;;;;5013774;28;20455;-67
2023/04/29 09:16:28;;;;;;;34.20;22.50;;;;;;;;;;5014750;28;20427;-67
2023/04/29 09:18:55;;;;;;;31.20;21.77;;;;;;;;;;5014776;28;20567;-67
2023/04/29 09:21:23;;;;;;;31.93;23.27;;;;;;;;;;5014726;28;20444;-67
2023/04/29 09:23:52;;;;;;;28.67;22.47;;;;;;;;;;5014762;28;20443;-67
2023/04/29 09:26:21;;;;;;;30.73;23.60;;;;;;;;;;5014450;28;20446;-69
2023/04/29 09:28:48;;;;;;;33.67;21.90;;;;;;;;;;5014723;28;20448;-67
2023/04/29 09:31:16;;;;;;;28.27;23.50;;;;;;;;;;5014793;28;20449;-67
2023/04/29 09:33:53;;;;;;;27.00;21.50;;;;;;;;;;5014759;28;20455;-67
2023/04/29 09:36:36;;;;;;;26.20;21.90;;;;;;;;;;5014860;28;20449;-67
2023/04/29 09:39:04;;;;;;;30.27;20.37;;;;;;;;;;5015281;28;20498;-67
2023/04/29 09:41:33;;;;;;;34.33;23.60;;;;;;;;;;5015466;28;20453;-66
2023/04/29 09:44:10;;;;;;;32.60;21.77;;;;;;;;;;4999897;28;20458;-67
2023/04/29 09:46:38;;;;;;;27.73;22.37;;;;;;;;;;4995198;28;20435;-67
2023/04/29 09:49:23;;;;;;;31.03;22.10;;;;;;;;;;4995615;28;20457;-67
2023/04/29 09:51:54;;;;;;;25.40;20.83;;;;;;;;;;4994781;28;20438;-68
2023/04/29 09:54:21;;;;;;;23.20;18.90;;;;;;;;;;4995138;28;20441;-66
2023/04/29 09:56:51;;;;;;;23.20;20.47;;;;;;;;;;4994730;28;20493;-67
2023/04/29 09:59:18;;;;;;;25.97;20.43;;;;;;;;;;5009104;28;20565;-67
2023/04/29 10:01:46;;;;;;;26.73;20.63;;;;;;;;;;5015394;28;20467;-67
2023/04/29 10:04:14;;;;;;;27.37;20.37;;;;;;;;;;5014866;28;20942;-67
2023/04/29 10:06:42;;;;;;;24.43;20.30;;;;;;;;;;5014822;28;20446;-66
2023/04/29 10:09:11;;;;;;;22.43;18.07;;;;;;;;;;5014822;28;20449;-67
2023/04/29 10:11:40;;;;;;;21.47;18.03;;;;;;;;;;5014485;28;20449;-66
2023/04/29 10:14:10;;;;;;;25.77;19.80;;;;;;;;;;5014167;28;20497;-67
2023/04/29 10:16:41;;;;;;;25.93;20.63;;;;;;;;;;5013588;28;20451;-67
2023/04/29 10:19:12;;;;;;;23.57;18.07;;;;;;;;;;5014607;28;20476;-67
2023/04/29 10:21:40;;;;;;;23.43;19.40;;;;;;;;;;5014375;28;20432;-67
2023/04/29 10:24:07;;;;;;;25.93;18.20;;;;;;;;;;5014903;28;20481;-67
2023/04/29 10:26:36;;;;;;;23.37;19.50;;;;;;;;;;5014308;28;20935;-68
2023/04/29 10:29:04;;;;;;;21.83;18.33;;;;;;;;;;5014246;28;20438;-67
2023/04/29 10:31:33;;;;;;;21.60;17.70;;;;;;;;;;5013997;28;20450;-67
2023/04/29 10:34:00;;;;;;;22.17;17.37;;;;;;;;;;5013951;28;20452;-67
2023/04/29 10:36:29;;;;;;;24.37;18.47;;;;;;;;;;5013320;28;20489;-68
2023/04/29 10:38:58;;;;;;;21.97;18.33;;;;;;;;;;5013358;28;21033;-67
2023/04/29 10:41:27;;;;;;;22.10;17.30;;;;;;;;;;5014272;28;20457;-67
2023/04/29 10:43:55;;;;;;;18.40;16.40;;;;;;;;;;5014357;28;20471;-66
2023/04/29 10:46:22;;;;;;;21.07;16.67;;;;;;;;;;5013999;28;20436;-67
2023/04/29 10:48:54;;;;;;;22.33;17.40;;;;;;;;;;5013500;28;20452;-67
2023/04/29 10:51:31;;;;;;;20.70;17.37;;;;;;;;;;5013491;28;20474;-67
2023/04/29 10:53:59;;;;;;;21.90;16.40;;;;;;;;;;5013420;28;20541;-67
2023/04/29 10:56:36;;;;;;;24.60;16.07;;;;;;;;;;5012638;28;20504;-67
2023/04/29 10:59:03;;;;;;;24.13;16.90;;;;;;;;;;5013598;28;20466;-67
2023/04/29 11:01:41;;;;;;;18.80;16.73;;;;;;;;;;5014310;28;20447;-67
2023/04/29 11:04:10;;;;;;;20.50;14.90;;;;;;;;;;5014074;28;20489;-66
2023/04/29 11:06:41;;;;;;;17.03;14.67;;;;;;;;;;5013355;28;20497;-66
2023/04/29 11:09:10;;;;;;;15.20;13.50;;;;;;;;;;5013067;28;20490;-66
2023/04/29 11:11:45;;;;;;;15.73;14.07;;;;;;;;;;5013125;28;20439;-67
2023/04/29 11:14:15;;;;;;;16.03;14.50;;;;;;;;;;5012811;28;20958;-67
2023/04/29 11:16:49;;;;;;;18.67;15.07;;;;;;;;;;5012573;28;20426;-66
2023/04/29 11:19:17;;;;;;;14.90;13.30;;;;;;;;;;5013324;28;20492;-66
2023/04/29 11:21:45;;;;;;;15.20;13.67;;;;;;;;;;5014023;28;20944;-66
2023/04/29 11:24:14;;;;;;;14.80;13.30;;;;;;;;;;5013389;28;20455;-66
2023/04/29 11:26:43;;;;;;;15.20;13.30;;;;;;;;;;5013058;28;20445;-66
2023/04/29 11:29:10;;;;;;;16.50;13.57;;;;;;;;;;5013194;28;20509;-66
2023/04/29 11:31:38;;;;;;;14.50;13.00;;;;;;;;;;5012732;28;20927;-66
2023/04/29 11:34:05;;;;;;;16.33;14.10;;;;;;;;;;5012426;28;20447;-66
2023/04/29 11:36:34;;;;;;;15.80;13.57;;;;;;;;;;5012556;28;20453;-66
2023/04/29 11:39:02;;;;;;;19.03;14.07;;;;;;;;;;5012656;28;20968;-64
2023/04/29 11:41:30;;;;;;;16.10;12.77;;;;;;;;;;5013019;28;20533;-66
2023/04/29 11:43:57;;;;;;;12.90;11.60;;;;;;;;;;5013181;28;20484;-65
2023/04/29 11:46:25;;;;;;;13.73;11.33;;;;;;;;;;5012784;28;20455;-69
2023/04/29 11:48:52;;;;;;;13.93;12.43;;;;;;;;;;5013416;28;20453;-66
2023/04/29 11:51:19;;;;;;;13.33;11.23;;;;;;;;;;5012837;28;20872;-66
2023/04/29 11:53:48;;;;;;;15.10;12.43;;;;;;;;;;5013131;28;20446;-67
2023/04/29 11:56:15;;;;;;;19.53;12.43;;;;;;;;;;5012594;28;20442;-66
2023/04/29 11:58:43;;;;;;;15.33;13.10;;;;;;;;;;5012753;28;20478;-66
2023/04/29 12:01:11;;;;;;;15.30;11.60;;;;;;;;;;5012863;28;20999;-66
2023/04/29 12:03:38;;;;;;;14.07;12.57;;;;;;;;;;5013380;28;20465;-67
2023/04/29 12:06:05;;;;;;;14.60;12.20;;;;;;;;;;5013660;28;20454;-65
2023/04/29 12:08:33;;;;;;;13.10;11.70;;;;;;;;;;5013078;28;20461;-68
2023/04/29 12:11:02;;;;;;;14.07;12.47;;;;;;;;;;5012962;28;20457;-66
2023/04/29 12:13:30;;;;;;;16.30;12.73;;;;;;;;;;5013363;28;20451;-66
2023/04/29 12:15:58;;;;;;;15.87;12.90;;;;;;;;;;5013448;28;20457;-67
2023/04/29 12:18:26;;;;;;;16.50;12.67;;;;;;;;;;5013169;28;20458;-66
2023/04/29 12:20:55;;;;;;;14.40;12.90;;;;;;;;;;5012873;28;20987;-67
2023/04/29 12:23:25;;;;;;;15.57;12.73;;;;;;;;;;5012783;28;20936;-67
2023/04/29 12:25:53;;;;;;;19.17;12.23;;;;;;;;;;5013565;28;20803;-67
2023/04/29 12:28:22;;;;;;;14.97;12.27;;;;;;;;;;5012848;28;20513;-66
2023/04/29 12:30:50;;;;;;;15.67;12.20;;;;;;;;;;5013164;28;20445;-66
2023/04/29 12:33:20;;;;;;;15.93;13.03;;;;;;;;;;5013026;28;20540;-66
2023/04/29 12:35:47;;;;;;;15.30;11.83;;;;;;;;;;5013089;28;20799;-66
2023/04/29 12:38:17;;;;;;;13.77;11.67;;;;;;;;;;5012690;28;20480;-66
2023/04/29 12:40:45;;;;;;;13.57;11.90;;;;;;;;;;5012982;28;20504;-66
2023/04/29 12:43:13;;;;;;;13.23;11.83;;;;;;;;;;5013055;28;20856;-66
2023/04/29 12:45:41;;;;;;;11.30;10.10;;;;;;;;;;5016567;28;20450;-66
2023/04/29 12:48:09;;;;;;;18.80;11.40;;;;;;;;;;5016516;28;20443;-66
2023/04/29 12:50:37;;;;;;;11.60;10.40;;;;;;;;;;5016871;28;20460;-66
2023/04/29 12:53:05;;;;;;;12.77;10.67;;;;;;;;;;5016081;28;20443;-66
2023/04/29 12:55:33;;;;;;;12.00;10.90;;;;;;;;;;5016560;28;20796;-66
2023/04/29 12:58:00;;;;;;;13.10;11.30;;;;;;;;;;5016818;28;20449;-66
2023/04/29 13:00:28;;;;;;;14.20;11.70;;;;;;;;;;5016593;28;20515;-66
2023/04/29 13:02:56;;;;;;;14.23;10.90;;;;;;;;;;5016359;28;20450;-66
2023/04/29 13:05:23;;;;;;;15.63;11.20;;;;;;;;;;5016250;28;20453;-66
2023/04/29 13:07:51;;;;;;;15.70;10.87;;;;;;;;;;5016216;28;20451;-66
2023/04/29 13:10:18;;;;;;;13.20;11.57;;;;;;;;;;5015787;28;20455;-65
2023/04/29 13:12:46;;;;;;;12.60;11.30;;;;;;;;;;5015714;28;20450;-66
2023/04/29 13:15:14;;;;;;;13.50;12.10;;;;;;;;;;5016692;28;20462;-66
2023/04/29 13:17:41;;;;;;;16.10;12.23;;;;;;;;;;5015979;28;20456;-67
2023/04/29 13:20:11;;;;;;;15.77;11.43;;;;;;;;;;5015572;28;20512;-66
2023/04/29 13:22:38;;;;;;;13.27;11.03;;;;;;;;;;5015920;28;20501;-65
2023/04/29 13:25:06;;;;;;;11.60;10.03;;;;;;;;;;5015963;28;20446;-66
2023/04/29 13:27:33;;;;;;;12.17;10.20;;;;;;;;;;5016117;28;20486;-66
2023/04/29 13:30:00;;;;;;;12.03;10.67;;;;;;;;;;5016267;28;20947;-66
2023/04/29 13:32:27;;;;;;;13.33;11.20;;;;;;;;;;5015964;28;20900;-65
2023/04/29 13:34:55;;;;;;;12.47;11.17;;;;;;;;;;5015698;28;20438;-65
2023/04/29 13:37:23;;;;;;;12.70;10.97;;;;;;;;;;5015051;28;20998;-66
2023/04/29 13:39:51;;;;;;;12.67;11.47;;;;;;;;;;5015756;28;20431;-66
2023/04/29 13:42:18;;;;;;;15.20;11.97;;;;;;;;;;5015474;28;20448;-65
2023/04/29 13:44:45;;;;;;;12.30;10.37;;;;;;;;;;5015646;28;20444;-66
2023/04/29 13:47:12;;;;;;;15.50;12.00;;;;;;;;;;5015407;28;20445;-66
2023/04/29 13:49:40;;;;;;;13.67;9.70;;;;;;;;;;5015597;28;20450;-66
2023/04/29 13:52:07;;;;;;;11.00;9.47;;;;;;;;;;5015032;28;21006;-66
2023/04/29 13:54:35;;;;;;;14.97;9.60;;;;;;;;;;5015176;28;20450;-66
2023/04/29 13:57:04;;;;;;;11.27;9.30;;;;;;;;;;5014787;28;20789;-65
2023/04/29 13:59:31;;;;;;;11.13;9.37;;;;;;;;;;5014759;28;20439;-66
2023/04/29 14:01:58;;;;;;;10.87;9.70;;;;;;;;;;5015124;28;20478;-65
2023/04/29 14:04:25;;;;;;;11.47;8.30;;;;;;;;;;5015002;28;20450;-66
2023/04/29 14:06:53;;;;;;;10.90;7.40;;;;;;;;;;5015674;28;20534;-66
2023/04/29 14:09:21;;;;;;;11.33;8.30;;;;;;;;;;5012794;28;20605;-66
2023/04/29 14:11:50;;;;;;;11.63;7.93;;;;;;;;;;5013710;28;20509;-66
2023/04/29 14:14:17;;;;;;;6.77;5.50;;;;;;;;;;5013521;28;20504;-67
2023/04/29 14:16:44;;;;;;;4.97;4.47;;;;;;;;;;5013910;28;20933;-66
2023/04/29 14:19:11;;;;;;;12.40;5.50;;;;;;;;;;5013257;28;20496;-66
2023/04/29 14:21:39;;;;;;;6.10;5.50;;;;;;;;;;5013788;28;20486;-67
2023/04/29 14:24:06;;;;;;;6.17;5.13;;;;;;;;;;5013843;28;20455;-66